createdAt,value
2019-05-03T00:02:54.298Z,11.83
2019-05-03T00:05:28.910Z,14.40
2019-05-03T00:08:07.510Z,13.97
2019-05-03T00:10:38.650Z,15.47
2019-05-03T00:13:08.838Z,15.80
2019-05-03T00:15:53.599Z,13.33
2019-05-03T00:18:23.629Z,12.10
2019-05-03T00:20:53.938Z,14.60
2019-05-03T00:23:23.926Z,10.23
2019-05-03T00:25:53.983Z,14.33
2019-05-03T00:28:23.966Z,14.50
2019-05-03T00:30:55.184Z,13.20
2019-05-03T00:33:25.668Z,10.93
2019-05-03T00:36:22.377Z,12.23
2019-05-03T00:38:55.009Z,11.63
2019-05-03T00:41:24.990Z,13.03
2019-05-03T00:43:55.043Z,10.50
2019-05-03T00:46:24.951Z,11.30
2019-05-03T00:48:55.012Z,11.10
2019-05-03T00:51:25.313Z,12.93
2019-05-03T00:53:55.215Z,10.03
2019-05-03T00:56:25.203Z,15.43
2019-05-03T00:58:58.380Z,11.35
2019-05-03T01:01:28.353Z,11.87
2019-05-03T01:03:58.306Z,10.97
2019-05-03T01:06:28.307Z,9.13
2019-05-03T01:08:58.194Z,12.03
2019-05-03T01:11:28.168Z,14.77
2019-05-03T01:13:58.134Z,14.67
2019-05-03T01:16:28.246Z,11.70
2019-05-03T01:18:58.131Z,12.98
2019-05-03T01:21:27.941Z,14.47
2019-05-03T01:23:57.929Z,12.67
2019-05-03T01:26:27.874Z,8.17
2019-05-03T01:28:57.846Z,18.40
2019-05-03T01:31:28.744Z,13.83
2019-05-03T01:33:58.722Z,13.53
2019-05-03T01:36:28.688Z,13.37
2019-05-03T01:38:58.928Z,14.10
2019-05-03T01:41:28.819Z,9.70
2019-05-03T01:43:58.876Z,14.00
2019-05-03T01:46:28.986Z,12.85
2019-05-03T01:49:24.048Z,10.80
2019-05-03T01:52:24.870Z,14.03
2019-05-03T01:54:54.736Z,16.37
2019-05-03T01:57:24.931Z,13.33
2019-05-03T01:59:54.897Z,10.53
2019-05-03T02:02:35.048Z,9.50
2019-05-03T02:05:32.080Z,10.30
2019-05-03T02:08:02.282Z,14.47
2019-05-03T02:10:32.585Z,15.90
2019-05-03T02:13:02.806Z,15.07
2019-05-03T02:15:32.771Z,13.43
2019-05-03T02:18:03.865Z,11.20
2019-05-03T02:20:33.970Z,14.13
2019-05-03T02:23:04.232Z,13.27
2019-05-03T02:25:34.421Z,10.07
2019-05-03T02:28:04.408Z,11.93
2019-05-03T02:30:34.669Z,16.03
2019-05-03T02:33:04.659Z,9.50
2019-05-03T02:35:34.848Z,14.03
2019-05-03T02:38:04.864Z,8.50
2019-05-03T02:40:34.757Z,10.23
2019-05-03T02:43:17.369Z,12.23
2019-05-03T02:45:56.779Z,10.03
2019-05-03T02:48:36.215Z,13.20
2019-05-03T02:51:06.534Z,10.50
2019-05-03T02:53:37.369Z,9.95
2019-05-03T02:56:18.211Z,10.20
2019-05-03T02:58:39.151Z,10.67
2019-05-03T03:01:09.549Z,11.97
2019-05-03T03:03:39.848Z,7.67
2019-05-03T03:06:10.018Z,10.53
2019-05-03T03:08:41.759Z,10.90
2019-05-03T03:11:11.710Z,11.80
2019-05-03T03:13:42.374Z,9.60
2019-05-03T03:16:12.257Z,10.57
2019-05-03T03:18:45.402Z,8.03
2019-05-03T03:21:17.439Z,11.37
2019-05-03T03:24:01.714Z,11.27
2019-05-03T03:26:37.992Z,10.07
2019-05-03T03:29:05.660Z,12.07
2019-05-03T03:31:57.920Z,8.67
2019-05-03T03:34:30.605Z,14.97
2019-05-03T03:37:06.448Z,9.17
2019-05-03T03:39:36.015Z,9.13
2019-05-03T03:42:05.504Z,8.50
2019-05-03T03:44:36.532Z,13.53
2019-05-03T03:47:07.101Z,12.13
2019-05-03T03:49:40.471Z,12.30
2019-05-03T03:52:11.745Z,9.87
2019-05-03T03:54:45.726Z,11.73
2019-05-03T03:57:17.604Z,10.80
2019-05-03T03:59:47.775Z,10.93
2019-05-03T04:02:18.546Z,9.37
2019-05-03T04:04:48.947Z,7.73
2019-05-03T04:07:19.014Z,10.67
2019-05-03T04:09:49.186Z,8.00
2019-05-03T04:12:20.537Z,14.63
2019-05-03T04:14:56.756Z,9.70
2019-05-03T04:17:58.512Z,13.83
2019-05-03T04:20:35.828Z,8.20
2019-05-03T04:23:06.517Z,8.47
2019-05-03T04:25:37.245Z,10.93
2019-05-03T04:28:08.333Z,8.53
2019-05-03T04:30:38.354Z,10.37
2019-05-03T04:33:08.626Z,14.03
2019-05-03T04:35:38.865Z,8.37
2019-05-03T04:38:08.847Z,8.23
2019-05-03T04:40:38.829Z,4.20
2019-05-03T04:43:09.017Z,8.77
2019-05-03T04:45:39.043Z,16.63
2019-05-03T04:48:09.049Z,10.67
2019-05-03T04:50:39.010Z,8.10
2019-05-03T04:53:09.256Z,13.90
2019-05-03T04:55:39.707Z,7.80
2019-05-03T04:58:09.727Z,10.93
2019-05-03T05:00:39.686Z,8.43
2019-05-03T05:03:09.674Z,8.23
2019-05-03T05:05:40.087Z,8.53
2019-05-03T05:08:10.155Z,8.93
2019-05-03T05:10:40.034Z,6.60
2019-05-03T05:13:10.032Z,9.10
2019-05-03T05:15:40.375Z,5.93
2019-05-03T05:18:16.229Z,13.03
2019-05-03T05:20:55.505Z,14.40
2019-05-03T05:23:25.875Z,14.37
2019-05-03T05:26:02.881Z,9.10
2019-05-03T05:28:49.680Z,10.87
2019-05-03T05:31:19.587Z,13.90
2019-05-03T05:33:49.632Z,8.43
2019-05-03T05:36:19.615Z,12.70
2019-05-03T05:38:49.667Z,9.10
2019-05-03T05:41:19.643Z,9.30
2019-05-03T05:43:49.808Z,8.23
2019-05-03T05:46:21.449Z,9.37
2019-05-03T05:48:51.658Z,8.50
2019-05-03T05:51:21.579Z,10.10
2019-05-03T05:53:51.598Z,14.20
2019-05-03T05:56:35.325Z,14.87
2019-05-03T05:59:15.090Z,9.07
2019-05-03T06:01:55.457Z,10.63
2019-05-03T06:04:25.464Z,10.30
2019-05-03T06:07:14.877Z,11.90
2019-05-03T06:09:56.226Z,9.53
2019-05-03T06:12:32.877Z,12.10
2019-05-03T06:15:07.860Z,11.13
2019-05-03T06:17:45.930Z,11.40
2019-05-03T06:20:45.186Z,10.37
2019-05-03T06:23:28.631Z,8.53
2019-05-03T06:25:59.313Z,8.10
2019-05-03T06:28:35.275Z,9.63
2019-05-03T06:31:15.016Z,6.53
2019-05-03T06:33:45.141Z,4.73
2019-05-03T06:36:15.379Z,10.00
2019-05-03T06:38:45.241Z,13.13
2019-05-03T06:41:16.310Z,6.43
2019-05-03T06:43:48.684Z,9.40
2019-05-03T06:46:25.356Z,8.93
2019-05-03T06:48:51.759Z,8.50
2019-05-03T06:51:21.651Z,11.07
2019-05-03T06:53:51.932Z,8.00
2019-05-03T06:56:25.052Z,7.00
2019-05-03T06:58:55.138Z,8.10
2019-05-03T07:01:31.610Z,11.77
2019-05-03T07:04:09.618Z,9.73
2019-05-03T07:07:01.824Z,10.67
2019-05-03T07:09:39.788Z,4.93
2019-05-03T07:12:09.758Z,7.60
2019-05-03T07:14:39.733Z,11.00
2019-05-03T07:17:09.717Z,7.60
2019-05-03T07:19:40.049Z,8.13
2019-05-03T07:22:10.045Z,9.33
2019-05-03T07:24:40.950Z,6.80
2019-05-03T07:27:12.103Z,5.87
2019-05-03T07:29:42.050Z,6.03
2019-05-03T07:32:12.030Z,5.07
2019-05-03T07:34:45.162Z,7.00
2019-05-03T07:37:14.948Z,6.07
2019-05-03T07:39:45.298Z,6.40
2019-05-03T07:42:15.726Z,7.80
2019-05-03T07:44:46.769Z,5.87
2019-05-03T07:47:16.753Z,5.03
2019-05-03T07:49:46.685Z,6.00
2019-05-03T07:52:16.656Z,7.60
2019-05-03T07:54:46.789Z,5.17
2019-05-03T07:57:41.833Z,8.43
2019-05-03T08:00:14.931Z,3.90
2019-05-03T08:02:45.330Z,4.57
2019-05-03T08:05:15.602Z,6.80
2019-05-03T08:07:46.251Z,7.60
2019-05-03T08:10:16.638Z,7.93
2019-05-03T08:12:46.679Z,4.87
2019-05-03T08:15:16.765Z,9.17
2019-05-03T08:17:46.764Z,8.23
2019-05-03T08:20:16.865Z,7.43
2019-05-03T08:22:47.765Z,4.10
2019-05-03T08:25:17.797Z,8.17
2019-05-03T08:27:48.077Z,8.07
2019-05-03T08:30:24.986Z,5.43
2019-05-03T08:33:07.604Z,3.47
2019-05-03T08:35:40.659Z,4.77
2019-05-03T08:38:10.644Z,3.13
2019-05-03T08:40:46.811Z,5.47
2019-05-03T08:43:16.788Z,8.27
2019-05-03T08:45:46.758Z,4.93
2019-05-03T08:48:16.770Z,2.03
2019-05-03T08:50:46.632Z,4.00
2019-05-03T08:53:16.586Z,6.90
2019-05-03T08:55:46.575Z,5.50
2019-05-03T08:58:16.546Z,8.30
2019-05-03T09:00:46.533Z,5.73
2019-05-03T09:03:16.514Z,6.03
2019-05-03T09:05:46.655Z,7.40
2019-05-03T09:08:16.687Z,5.97
2019-05-03T09:10:54.547Z,5.00
2019-05-03T09:13:25.174Z,4.43
2019-05-03T09:15:55.503Z,8.90
2019-05-03T09:18:25.975Z,2.37
2019-05-03T09:20:56.031Z,4.87
2019-05-03T09:23:26.214Z,4.00
2019-05-03T09:25:57.211Z,7.57
2019-05-03T09:28:29.269Z,7.77
2019-05-03T09:30:59.781Z,3.83
2019-05-03T09:33:30.000Z,4.30
2019-05-03T09:36:00.371Z,6.97
2019-05-03T09:38:31.477Z,4.17
2019-05-03T09:41:01.482Z,4.93
2019-05-03T09:43:31.489Z,2.97
2019-05-03T09:46:01.471Z,6.57
2019-05-03T09:48:31.539Z,6.50
2019-05-03T09:51:01.778Z,5.13
2019-05-03T09:53:35.985Z,6.33
2019-05-03T09:56:05.973Z,2.87
2019-05-03T09:58:38.117Z,4.33
2019-05-03T10:01:08.760Z,7.77
2019-05-03T10:03:38.774Z,6.97
2019-05-03T10:06:08.770Z,5.90
2019-05-03T10:08:38.772Z,5.93
2019-05-03T10:11:11.909Z,5.27
2019-05-03T10:13:42.312Z,4.30
2019-05-03T10:16:15.320Z,3.87
2019-05-03T10:18:45.961Z,6.43
2019-05-03T10:21:16.325Z,4.13
2019-05-03T10:23:46.684Z,4.93
2019-05-03T10:26:16.950Z,8.30
2019-05-03T10:28:46.963Z,6.63
2019-05-03T10:31:17.262Z,5.87
2019-05-03T10:34:05.929Z,7.07
2019-05-03T10:36:36.055Z,5.50
2019-05-03T10:39:06.617Z,4.33
2019-05-03T10:41:38.210Z,9.33
2019-05-03T10:44:08.271Z,5.43
2019-05-03T10:46:39.081Z,2.27
2019-05-03T10:49:09.235Z,4.17
2019-05-03T10:51:45.209Z,4.50
2019-05-03T10:54:15.447Z,4.53
2019-05-03T10:57:10.569Z,2.80
2019-05-03T10:59:40.614Z,4.22
2019-05-03T11:02:22.296Z,2.70
2019-05-03T11:04:52.227Z,3.72
2019-05-03T11:07:22.536Z,3.70
2019-05-03T11:09:56.039Z,3.60
2019-05-03T11:12:27.217Z,7.03
2019-05-03T11:14:57.355Z,4.25
2019-05-03T11:17:27.351Z,5.85
2019-05-03T11:19:57.350Z,4.93
2019-05-03T11:22:27.315Z,4.20
2019-05-03T11:24:57.309Z,5.80
2019-05-03T11:27:35.392Z,3.95
2019-05-03T11:30:09.509Z,4.00
2019-05-03T11:32:55.466Z,3.58
2019-05-03T11:35:39.951Z,3.65
2019-05-03T11:38:15.181Z,6.53
2019-05-03T11:40:45.553Z,4.67
2019-05-03T11:43:17.699Z,6.53
2019-05-03T11:45:47.712Z,2.80
2019-05-03T11:48:18.334Z,5.67
2019-05-03T11:50:48.946Z,3.50
2019-05-03T11:53:18.909Z,4.77
2019-05-03T11:55:48.801Z,4.83
2019-05-03T11:58:22.632Z,4.87
2019-05-03T12:01:19.701Z,6.17
2019-05-03T12:03:52.588Z,4.03
2019-05-03T12:06:24.937Z,3.60
2019-05-03T12:08:55.395Z,5.20
2019-05-03T12:11:26.633Z,4.87
2019-05-03T12:14:12.298Z,3.90
2019-05-03T12:17:14.343Z,3.60
2019-05-03T12:19:27.526Z,6.73
2019-05-03T12:21:53.080Z,3.90
2019-05-03T12:24:26.176Z,4.23
2019-05-03T12:26:55.823Z,2.50
2019-05-03T12:29:25.794Z,4.63
2019-05-03T12:31:55.718Z,5.07
2019-05-03T12:34:25.798Z,6.27
2019-05-03T12:36:55.844Z,3.67
2019-05-03T12:39:30.074Z,3.43
2019-05-03T12:41:57.648Z,3.60
2019-05-03T12:44:27.607Z,3.70
2019-05-03T12:46:57.506Z,5.93
2019-05-03T12:49:27.414Z,7.50
2019-05-03T12:51:57.371Z,3.60
2019-05-03T12:54:27.433Z,2.53
2019-05-03T12:56:57.491Z,4.73
2019-05-03T12:59:49.625Z,6.53
2019-05-03T13:02:33.942Z,3.33
2019-05-03T13:05:04.829Z,5.00
2019-05-03T13:07:49.221Z,5.50
2019-05-03T13:10:22.660Z,6.43
2019-05-03T13:12:53.325Z,4.70
2019-05-03T13:15:24.479Z,6.70
2019-05-03T13:17:55.348Z,8.27
2019-05-03T13:20:25.753Z,2.40
2019-05-03T13:22:55.991Z,6.37
2019-05-03T13:25:25.998Z,4.00
2019-05-03T13:27:56.327Z,3.47
2019-05-03T13:30:26.292Z,2.93
2019-05-03T13:32:56.248Z,4.03
2019-05-03T13:35:26.209Z,5.13
2019-05-03T13:37:56.380Z,5.37
2019-05-03T13:40:27.122Z,5.97
2019-05-03T13:43:03.505Z,5.47
2019-05-03T13:45:28.758Z,4.10
2019-05-03T13:47:58.867Z,5.20
2019-05-03T13:50:29.617Z,4.63
2019-05-03T13:52:59.602Z,4.23
2019-05-03T13:55:29.907Z,3.53
2019-05-03T13:58:00.403Z,1.83
2019-05-03T14:00:30.453Z,4.53
2019-05-03T14:03:00.527Z,4.17
2019-05-03T14:05:30.479Z,4.43
2019-05-03T14:08:00.476Z,5.40
2019-05-03T14:10:30.774Z,2.42
2019-05-03T14:13:01.039Z,3.02
2019-05-03T14:15:31.476Z,4.10
2019-05-03T14:18:01.412Z,4.85
2019-05-03T14:20:56.388Z,3.47
2019-05-03T14:23:26.628Z,3.43
2019-05-03T14:25:57.046Z,7.97
2019-05-03T14:28:27.041Z,3.10
2019-05-03T14:30:57.016Z,3.70
2019-05-03T14:33:28.433Z,4.23
2019-05-03T14:35:58.561Z,3.17
2019-05-03T14:38:28.614Z,5.15
2019-05-03T14:40:58.914Z,3.42
2019-05-03T14:43:28.817Z,4.37
2019-05-03T14:45:58.794Z,4.00
2019-05-03T14:48:28.691Z,3.30
2019-05-03T14:50:58.672Z,3.93
2019-05-03T14:53:29.098Z,5.00
2019-05-03T14:56:07.853Z,5.60
2019-05-03T14:59:02.217Z,4.17
2019-05-03T15:01:41.149Z,4.90
2019-05-03T15:04:11.048Z,4.00
2019-05-03T15:06:41.443Z,4.30
2019-05-03T15:09:11.467Z,3.37
2019-05-03T15:11:41.450Z,4.80
2019-05-03T15:14:11.623Z,3.03
2019-05-03T15:16:41.549Z,6.33
2019-05-03T15:19:11.473Z,2.43
2019-05-03T15:21:41.640Z,3.80
2019-05-03T15:24:11.522Z,4.73
2019-05-03T15:26:41.482Z,5.67
2019-05-03T15:29:11.481Z,3.83
2019-05-03T15:31:41.744Z,5.27
2019-05-03T15:34:11.739Z,4.17
2019-05-03T15:36:41.750Z,3.73
2019-05-03T15:39:11.720Z,7.43
2019-05-03T15:41:41.809Z,5.90
2019-05-03T15:44:49.310Z,3.20
2019-05-03T15:47:25.276Z,3.20
2019-05-03T15:49:55.428Z,6.30
2019-05-03T15:52:25.570Z,8.03
2019-05-03T15:54:55.860Z,2.70
2019-05-03T15:57:25.854Z,7.03
2019-05-03T15:59:55.827Z,7.67
2019-05-03T16:02:26.086Z,4.73
2019-05-03T16:04:58.642Z,7.93
2019-05-03T16:07:28.125Z,4.33
2019-05-03T16:09:58.096Z,4.90
2019-05-03T16:12:28.432Z,6.63
2019-05-03T16:14:58.495Z,7.73
2019-05-03T16:17:28.404Z,6.00
2019-05-03T16:19:58.440Z,5.37
2019-05-03T16:22:28.355Z,9.00
2019-05-03T16:24:58.439Z,3.90
2019-05-03T16:27:47.538Z,7.60
2019-05-03T16:30:36.724Z,8.53
2019-05-03T16:33:07.364Z,5.30
2019-05-03T16:35:37.851Z,5.77
2019-05-03T16:38:08.230Z,4.70
2019-05-03T16:40:38.497Z,4.00
2019-05-03T16:43:08.772Z,4.57
2019-05-03T16:45:39.053Z,7.43
2019-05-03T16:48:09.049Z,4.47
2019-05-03T16:50:39.188Z,4.27
2019-05-03T16:53:09.426Z,4.93
2019-05-03T16:55:39.995Z,3.70
2019-05-03T16:58:09.987Z,4.03
2019-05-03T17:00:39.978Z,3.47
2019-05-03T17:03:10.750Z,4.47
2019-05-03T17:06:00.797Z,4.50
2019-05-03T17:08:41.027Z,4.10
2019-05-03T17:11:14.757Z,5.20
2019-05-03T17:13:47.635Z,3.20
2019-05-03T17:16:17.160Z,5.90
2019-05-03T17:18:48.183Z,6.00
2019-05-03T17:21:18.153Z,8.20
2019-05-03T17:23:48.343Z,7.33
2019-05-03T17:26:18.337Z,5.53
2019-05-03T17:28:48.512Z,5.77
2019-05-03T17:31:19.082Z,7.40
2019-05-03T17:33:53.268Z,6.20
2019-05-03T17:36:20.983Z,7.47
2019-05-03T17:38:55.001Z,5.17
2019-05-03T17:41:48.420Z,3.03
2019-05-03T17:44:22.925Z,5.37
2019-05-03T17:46:54.819Z,3.50
2019-05-03T17:49:24.547Z,6.07
2019-05-03T17:52:20.773Z,5.07
2019-05-03T17:55:10.087Z,3.37
2019-05-03T17:58:04.482Z,3.33
2019-05-03T18:00:49.711Z,6.57
2019-05-03T18:03:20.732Z,2.93
2019-05-03T18:05:59.153Z,6.67
2019-05-03T18:08:44.758Z,4.77
2019-05-03T18:11:17.778Z,7.07
2019-05-03T18:13:47.793Z,3.43
2019-05-03T18:16:17.734Z,4.07
2019-05-03T18:18:47.857Z,5.47
2019-05-03T18:21:18.257Z,6.53
2019-05-03T18:23:48.263Z,6.80
2019-05-03T18:26:18.813Z,4.90
2019-05-03T18:28:48.711Z,5.17
2019-05-03T18:31:18.727Z,8.93
2019-05-03T18:33:48.717Z,6.27
2019-05-03T18:36:18.685Z,7.33
2019-05-03T18:38:48.716Z,4.53
2019-05-03T18:41:19.029Z,5.43
2019-05-03T18:44:08.558Z,7.93
2019-05-03T18:46:44.602Z,7.43
2019-05-03T18:49:14.986Z,4.67
2019-05-03T18:51:44.989Z,5.00
2019-05-03T18:54:15.638Z,6.30
2019-05-03T18:56:46.080Z,6.13
2019-05-03T18:59:16.080Z,5.60
2019-05-03T19:01:46.134Z,3.03
2019-05-03T19:04:34.089Z,5.80
2019-05-03T19:07:03.769Z,7.00
2019-05-03T19:09:38.638Z,6.07
2019-05-03T19:12:21.477Z,4.77
2019-05-03T19:14:51.546Z,4.47
2019-05-03T19:17:35.560Z,6.33
2019-05-03T19:20:08.495Z,6.67
2019-05-03T19:22:38.867Z,4.77
2019-05-03T19:25:09.341Z,7.03
2019-05-03T19:27:39.491Z,6.83
2019-05-03T19:30:10.204Z,6.07
2019-05-03T19:32:40.233Z,5.50
2019-05-03T19:35:10.309Z,4.33
2019-05-03T19:37:40.590Z,7.13
2019-05-03T19:40:10.841Z,9.83
2019-05-03T19:42:40.921Z,5.43
2019-05-03T19:45:11.454Z,5.53
2019-05-03T19:47:41.776Z,4.13
2019-05-03T19:50:11.798Z,6.60
2019-05-03T19:53:00.389Z,7.93
2019-05-03T19:55:30.980Z,7.47
2019-05-03T19:58:01.002Z,5.93
2019-05-03T20:00:58.523Z,7.03
2019-05-03T20:03:35.307Z,8.80
2019-05-03T20:06:19.972Z,7.30
2019-05-03T20:08:57.774Z,5.33
2019-05-03T20:11:27.946Z,5.97
2019-05-03T20:13:57.923Z,6.70
2019-05-03T20:16:27.866Z,6.07
2019-05-03T20:18:57.844Z,7.37
2019-05-03T20:21:28.082Z,8.13
2019-05-03T20:23:58.557Z,6.23
2019-05-03T20:26:29.076Z,8.13
2019-05-03T20:28:59.022Z,7.37
2019-05-03T20:31:29.938Z,4.90
2019-05-03T20:34:00.161Z,5.60
2019-05-03T20:36:30.536Z,5.70
2019-05-03T20:39:00.486Z,9.07
2019-05-03T20:41:32.302Z,7.43
2019-05-03T20:44:19.798Z,3.80
2019-05-03T20:47:11.617Z,4.90
2019-05-03T20:49:41.894Z,6.57
2019-05-03T20:52:12.075Z,5.27
2019-05-03T20:54:41.880Z,6.50
2019-05-03T20:57:11.776Z,5.03
2019-05-03T20:59:46.003Z,7.57
2019-05-03T21:02:15.300Z,7.97
2019-05-03T21:04:46.491Z,6.33
2019-05-03T21:07:16.689Z,8.10
2019-05-03T21:09:46.918Z,8.13
2019-05-03T21:12:16.865Z,5.83
2019-05-03T21:14:46.773Z,7.77
2019-05-03T21:17:45.173Z,6.00
2019-05-03T21:20:34.699Z,5.23
2019-05-03T21:23:05.561Z,7.67
2019-05-03T21:26:05.728Z,5.87
2019-05-03T21:28:16.332Z,5.33
2019-05-03T21:30:46.901Z,4.00
2019-05-03T21:33:16.760Z,7.00
2019-05-03T21:35:46.920Z,4.43
2019-05-03T21:38:16.881Z,6.78
2019-05-03T21:40:47.094Z,8.10
2019-05-03T21:43:17.313Z,5.53
2019-05-03T21:45:51.750Z,8.58
2019-05-03T21:48:28.362Z,7.20
2019-05-03T21:50:58.256Z,3.87
2019-05-03T21:53:28.118Z,5.90
2019-05-03T21:55:58.375Z,4.63
2019-05-03T21:58:28.339Z,8.67
2019-05-03T22:01:05.333Z,7.17
2019-05-03T22:03:35.564Z,4.40
2019-05-03T22:06:05.870Z,4.73
2019-05-03T22:08:35.897Z,7.30
2019-05-03T22:11:05.889Z,7.23
2019-05-03T22:13:36.625Z,5.37
2019-05-03T22:16:22.126Z,7.83
2019-05-03T22:18:52.092Z,3.73
2019-05-03T22:21:37.041Z,7.60
2019-05-03T22:24:18.253Z,6.07
2019-05-03T22:27:15.155Z,4.10
2019-05-03T22:29:44.792Z,3.23
2019-05-03T22:32:15.571Z,5.17
2019-05-03T22:34:45.739Z,3.90
2019-05-03T22:37:16.600Z,6.93
2019-05-03T22:39:47.837Z,7.33
2019-05-03T22:42:17.973Z,5.73
2019-05-03T22:44:48.022Z,4.70
2019-05-03T22:47:18.069Z,7.80
2019-05-03T22:49:48.257Z,5.17
2019-05-03T22:52:18.172Z,5.33
2019-05-03T22:54:48.127Z,7.53
2019-05-03T22:57:18.061Z,5.73
2019-05-03T22:59:48.041Z,8.23
2019-05-03T23:02:18.061Z,6.50
2019-05-03T23:04:48.030Z,5.53
2019-05-03T23:07:17.913Z,7.27
2019-05-03T23:09:47.841Z,5.23
2019-05-03T23:12:17.728Z,6.93
2019-05-03T23:14:47.703Z,8.40
2019-05-03T23:17:17.876Z,6.47
2019-05-03T23:19:50.796Z,7.30
2019-05-03T23:22:26.997Z,7.57
2019-05-03T23:24:56.987Z,9.90
2019-05-03T23:27:26.940Z,7.73
2019-05-03T23:29:56.903Z,5.90
2019-05-03T23:32:26.935Z,8.90
2019-05-03T23:34:56.826Z,11.47
2019-05-03T23:37:26.808Z,6.03
2019-05-03T23:39:56.788Z,5.60
2019-05-03T23:42:26.759Z,4.30
2019-05-03T23:44:56.844Z,5.30
2019-05-03T23:47:35.551Z,6.70
2019-05-03T23:50:07.428Z,10.97
2019-05-03T23:52:38.304Z,5.00
2019-05-03T23:55:27.717Z,9.17
2019-05-03T23:57:57.738Z,7.47
